createdAt,value
2022-08-22T05:28:49.185Z,6.57
2022-08-22T05:35:37.926Z,6.93
2022-08-22T05:38:46.596Z,6.82
2022-08-22T05:41:50.352Z,6.93
2022-08-22T05:44:55.176Z,5.87
2022-08-22T05:48:11.506Z,5.70
2022-08-22T05:51:25.359Z,9.60
2022-08-22T05:54:35.950Z,7.07
2022-08-22T05:57:42.885Z,6.65
2022-08-22T06:00:52.825Z,9.40
2022-08-22T06:04:21.012Z,7.62
2022-08-22T06:07:45.145Z,7.30
2022-08-22T06:10:53.015Z,7.00
2022-08-22T06:14:13.040Z,7.55
2022-08-22T06:20:52.497Z,6.00
2022-08-22T06:24:02.976Z,7.20
2022-08-22T06:27:12.499Z,7.25
2022-08-22T06:30:17.341Z,8.98
2022-08-22T06:41:06.798Z,7.55
2022-08-22T06:44:18.450Z,7.80
2022-08-22T06:47:30.697Z,6.55
2022-08-22T06:50:36.722Z,6.53
2022-08-22T06:53:49.929Z,9.52
2022-08-22T06:56:55.532Z,8.65
2022-08-22T07:00:00.378Z,19.42
2022-08-22T07:03:15.106Z,8.25
2022-08-22T07:06:35.907Z,10.43
2022-08-22T07:09:41.287Z,7.75
2022-08-22T07:12:48.207Z,11.07
2022-08-22T07:15:56.281Z,9.10
2022-08-22T07:18:59.147Z,10.93
2022-08-22T07:22:13.576Z,8.70
2022-08-22T07:25:16.551Z,8.40
2022-08-22T07:32:30.952Z,7.07
2022-08-22T07:35:43.944Z,10.93
2022-08-22T07:39:11.157Z,9.48
2022-08-22T07:42:18.826Z,7.32
2022-08-22T07:45:21.281Z,11.05
2022-08-22T07:48:33.519Z,11.05
2022-08-22T07:51:43.034Z,9.15
2022-08-22T07:54:52.937Z,11.05
2022-08-22T07:58:04.062Z,10.53
2022-08-22T08:01:10.577Z,9.43
2022-08-22T08:04:18.987Z,9.52
2022-08-22T08:07:26.442Z,8.35
2022-08-22T08:10:34.811Z,8.80
2022-08-22T08:13:42.210Z,10.45
2022-08-22T08:17:02.190Z,13.32
2022-08-22T09:25:55.116Z,11.90
2022-08-22T09:56:18.777Z,9.68
2022-08-22T10:03:19.727Z,7.07
2022-08-22T10:06:35.285Z,8.90
2022-08-22T10:09:37.931Z,9.30
2022-08-22T10:13:16.324Z,13.15
2022-08-22T10:16:31.237Z,14.05
2022-08-22T10:30:23.320Z,8.35
2022-08-22T10:33:46.006Z,8.85
2022-08-22T10:37:05.050Z,7.40
2022-08-22T12:20:18.608Z,11.73
2022-08-22T12:31:13.047Z,10.77
2022-08-22T12:49:56.530Z,10.45
2022-08-22T12:53:23.667Z,10.13
2022-08-22T12:57:24.363Z,9.85
2022-08-22T13:00:34.617Z,12.35
2022-08-22T13:03:46.241Z,7.82
2022-08-22T13:06:56.551Z,8.48
2022-08-22T13:10:14.671Z,8.45
2022-08-22T13:13:37.056Z,13.75
2022-08-22T13:16:53.327Z,9.77
2022-08-22T13:19:56.563Z,9.38
2022-08-22T13:23:05.400Z,10.18
2022-08-22T13:26:33.401Z,12.30
2022-08-22T13:29:49.407Z,15.82
2022-08-22T13:32:56.992Z,15.68
2022-08-22T13:36:07.246Z,16.40
2022-08-22T13:39:14.629Z,13.48
2022-08-22T13:42:27.898Z,14.87
2022-08-22T13:45:36.121Z,13.60
2022-08-22T13:56:15.812Z,13.35
2022-08-22T13:59:50.365Z,15.18
2022-08-22T14:03:15.711Z,13.90
2022-08-22T14:06:41.209Z,15.70
2022-08-22T14:09:45.276Z,14.77
2022-08-22T14:12:56.935Z,13.35
2022-08-22T14:16:03.018Z,14.77
2022-08-22T14:19:12.901Z,17.37
2022-08-22T14:22:22.925Z,15.88
2022-08-22T14:25:38.994Z,12.23
2022-08-22T14:32:27.705Z,8.18
2022-08-22T14:39:46.917Z,8.73
2022-08-22T14:54:21.275Z,4.47
2022-08-22T14:57:24.620Z,2.72
2022-08-22T15:00:34.293Z,2.95
2022-08-22T15:03:39.982Z,3.30
2022-08-22T15:06:54.947Z,2.40
2022-08-22T15:10:20.662Z,3.30
2022-08-22T15:13:25.285Z,2.58
2022-08-22T15:16:49.262Z,3.30
2022-08-22T15:19:52.008Z,2.80
2022-08-22T15:22:59.317Z,3.85
2022-08-22T15:26:13.091Z,2.80
2022-08-22T15:29:26.338Z,3.70
2022-08-22T15:32:31.337Z,4.15
2022-08-22T15:35:39.055Z,3.87
2022-08-22T15:38:45.811Z,2.95
2022-08-22T15:41:51.146Z,4.07
2022-08-22T15:44:54.700Z,3.65
2022-08-22T15:48:01.322Z,5.95
2022-08-22T15:51:09.268Z,3.55
2022-08-22T15:54:24.698Z,2.78
2022-08-22T15:57:40.441Z,3.85
